Time;durP1;ratioP1;P1;durP2;ratioP2;P2;SDS_P1;SDS_P2;PMS_P1;PMS_P2;Temp;Humidity;BMP_temperature;BMP_pressure;BME280_temperature;BME280_humidity;BME280_pressure;Samples;Min_cycle;Max_cycle;Signal;HPM_P1;HPM_P2
2023/05/02 00:01:52;;;;;;;8.23;1.73;;;10.70;99.90;;;;;;5074810;28;20043;-72
2023/05/02 00:04:18;;;;;;;9.10;2.20;;;10.70;99.90;;;;;;5053094;28;20465;-72
2023/05/02 00:06:45;;;;;;;3.50;2.13;;;10.70;99.90;;;;;;5092641;28;20040;-72
2023/05/02 00:09:11;;;;;;;6.55;2.05;;;10.70;99.90;;;;;;5056092;28;20048;-72
2023/05/02 00:11:37;;;;;;;7.15;1.65;;;10.60;99.90;;;;;;5073237;28;20032;-72
2023/05/02 00:14:03;;;;;;;4.70;1.50;;;10.60;99.90;;;;;;5077949;28;20094;-72
2023/05/02 00:16:33;;;;;;;4.13;1.73;;;10.60;99.90;;;;;;5081069;22;20035;-70
2023/05/02 00:19:02;;;;;;;5.50;1.70;;;10.60;99.90;;;;;;5066421;28;20032;-69
2023/05/02 00:21:31;;;;;;;7.55;1.45;;;10.60;99.90;;;;;;5060782;28;20040;-70
2023/05/02 00:23:57;;;;;;;6.82;2.00;;;10.60;99.90;;;;;;5039065;28;20045;-70
2023/05/02 00:26:23;;;;;;;9.13;2.40;;;10.50;99.90;;;;;;5021378;28;20048;-70
2023/05/02 00:28:49;;;;;;;7.03;1.33;;;10.50;99.90;;;;;;5056531;28;20037;-70
2023/05/02 00:31:15;;;;;;;4.87;1.50;;;10.50;99.90;;;;;;5044504;28;20036;-70
2023/05/02 00:33:41;;;;;;;5.97;1.20;;;10.50;99.90;;;;;;5030646;28;20419;-70
2023/05/02 00:36:17;;;;;;;6.13;2.10;;;10.40;99.90;;;;;;5063297;28;20060;-70
2023/05/02 00:38:43;;;;;;;8.47;1.67;;;10.40;99.90;;;;;;5044212;28;20064;-70
2023/05/02 00:41:12;;;;;;;4.10;1.27;;;10.50;99.90;;;;;;5039772;28;20036;-70
2023/05/02 00:43:38;;;;;;;;;;;10.40;99.90;;;;;;5042532;28;20044;-70
2023/05/02 00:46:05;;;;;;;4.93;1.17;;;10.30;99.90;;;;;;5047630;28;19969;-71
2023/05/02 00:48:33;;;;;;;7.07;2.20;;;10.30;99.90;;;;;;5020260;28;20069;-70
2023/05/02 00:51:05;;;;;;;4.45;1.50;;;10.30;99.90;;;;;;5042583;28;20045;-70
2023/05/02 00:53:31;;;;;;;3.63;1.48;;;10.30;99.90;;;;;;5024615;28;20087;-70
2023/05/02 00:56:01;;;;;;;5.47;1.60;;;10.30;99.90;;;;;;5046143;28;20044;-70
2023/05/02 00:58:28;;;;;;;4.90;1.38;;;10.30;99.90;;;;;;5045434;28;20123;-70
2023/05/02 01:01:22;;;;;;;4.47;1.50;;;10.30;99.90;;;;;;5047852;28;20095;-71
2023/05/02 01:04:03;;;;;;;4.43;1.55;;;10.30;99.90;;;;;;5054706;28;20052;-70
2023/05/02 01:07:13;;;;;;;3.45;1.63;;;10.30;99.90;;;;;;5045600;28;20044;-70
2023/05/02 01:10:10;;;;;;;7.13;1.40;;;10.30;99.90;;;;;;5029653;28;20040;-70
2023/05/02 01:12:53;;;;;;;4.32;1.45;;;10.30;99.90;;;;;;5041386;28;20242;-70
2023/05/02 01:15:23;;;;;;;3.95;1.35;;;10.40;99.90;;;;;;5056603;28;20036;-70
2023/05/02 01:17:53;;;;;;;2.45;1.15;;;10.40;99.90;;;;;;5041067;28;20091;-70
2023/05/02 01:20:26;;;;;;;3.40;1.60;;;10.30;99.90;;;;;;5060896;28;20210;-70
2023/05/02 01:22:57;;;;;;;11.77;2.38;;;10.30;99.90;;;;;;5038010;28;20120;-70
2023/05/02 01:25:39;;;;;;;7.38;2.30;;;10.30;99.90;;;;;;5038740;28;20119;-71
2023/05/02 01:28:20;;;;;;;12.40;2.65;;;10.20;99.90;;;;;;5040332;28;20036;-70
2023/05/02 01:30:49;;;;;;;17.92;3.35;;;10.20;99.90;;;;;;5045604;28;20509;-70
2023/05/02 01:33:17;;;;;;;8.60;2.50;;;10.10;99.90;;;;;;5022098;28;20044;-69
2023/05/02 01:35:45;;;;;;;15.50;3.25;;;10.00;99.90;;;;;;5061359;28;20498;-69
2023/05/02 01:38:15;;;;;;;11.77;2.78;;;10.00;99.90;;;;;;5063759;28;20518;-70
2023/05/02 01:40:43;;;;;;;15.73;3.20;;;9.90;99.90;;;;;;5045030;28;20040;-71
2023/05/02 01:43:11;;;;;;;14.70;2.60;;;9.80;99.90;;;;;;5044960;28;20048;-70
2023/05/02 01:45:38;;;;;;;9.85;2.47;;;9.70;99.90;;;;;;5043935;28;20394;-70
2023/05/02 01:48:06;;;;;;;15.57;2.85;;;9.70;99.90;;;;;;5038859;28;20130;-70
2023/05/02 01:50:33;;;;;;;13.00;2.30;;;9.70;99.90;;;;;;5048506;28;20060;-70
2023/05/02 01:53:00;;;;;;;;;;;9.70;99.90;;;;;;5062047;28;20082;-70
2023/05/02 01:55:27;;;;;;;7.45;2.53;;;9.60;99.90;;;;;;5041434;28;20335;-70
2023/05/02 01:57:55;;;;;;;9.00;2.85;;;9.50;99.90;;;;;;5022041;28;20044;-70
2023/05/02 02:00:24;;;;;;;9.82;2.85;;;9.50;99.90;;;;;;5044730;28;20484;-70
2023/05/02 02:02:53;;;;;;;10.32;2.58;;;9.50;99.90;;;;;;5058182;28;20487;-70
2023/05/02 02:05:19;;;;;;;13.10;2.90;;;9.50;99.90;;;;;;5044842;28;20037;-70
2023/05/02 02:07:45;;;;;;;10.48;3.13;;;9.40;99.90;;;;;;5042491;28;20117;-70
2023/05/02 02:10:11;;;;;;;12.63;3.53;;;9.40;99.90;;;;;;5059550;28;20044;-70
2023/05/02 02:13:06;;;;;;;11.95;2.70;;;9.30;99.90;;;;;;5043775;28;20124;-70
2023/05/02 02:15:38;;;;;;;15.85;3.40;;;9.30;99.90;;;;;;5048434;28;20124;-70
2023/05/02 02:18:20;;;;;;;10.43;3.30;;;9.20;99.90;;;;;;5031252;28;20062;-70
2023/05/02 02:20:47;;;;;;;15.35;4.95;;;9.20;99.90;;;;;;5042370;28;20105;-70
2023/05/02 02:23:13;;;;;;;;;;;9.20;99.90;;;;;;5044035;28;20207;-70
2023/05/02 02:25:39;;;;;;;14.52;3.95;;;9.10;99.90;;;;;;5047215;28;19916;-70
2023/05/02 02:28:06;;;;;;;8.00;3.05;;;9.10;99.90;;;;;;5046587;28;20123;-70
2023/05/02 02:30:32;;;;;;;19.55;3.80;;;9.10;99.90;;;;;;5030826;28;20083;-70
2023/05/02 02:32:57;;;;;;;12.07;3.37;;;9.00;99.90;;;;;;5061960;28;20083;-70
2023/05/02 02:35:28;;;;;;;14.93;2.87;;;9.00;99.90;;;;;;5042700;28;20036;-70
2023/05/02 02:38:09;;;;;;;19.75;2.90;;;8.80;99.90;;;;;;5046325;28;20044;-69
2023/05/02 02:41:01;;;;;;;9.35;2.58;;;8.80;99.90;;;;;;5056387;28;20055;-69
2023/05/02 02:43:39;;;;;;;11.75;2.60;;;8.80;99.90;;;;;;5040780;28;20041;-69
2023/05/02 02:46:25;;;;;;;12.75;3.33;;;8.70;99.90;;;;;;5038828;28;20044;-69
2023/05/02 02:49:09;;;;;;;11.02;2.35;;;8.70;99.90;;;;;;5036007;28;20044;-69
2023/05/02 02:51:44;;;;;;;13.13;2.63;;;8.70;99.90;;;;;;5063359;28;20143;-69
2023/05/02 02:54:22;;;;;;;12.18;3.60;;;8.70;99.90;;;;;;5041724;28;20044;-69
2023/05/02 02:57:05;;;;;;;9.73;2.58;;;8.70;99.90;;;;;;5041545;28;20060;-69
2023/05/02 02:59:40;;;;;;;10.07;2.20;;;8.70;99.90;;;;;;5039475;28;20278;-69
2023/05/02 03:02:08;;;;;;;9.52;3.50;;;8.70;99.90;;;;;;5059015;28;20047;-69
2023/05/02 03:04:37;;;;;;;15.60;2.72;;;8.60;99.90;;;;;;5039649;28;20048;-69
2023/05/02 03:07:03;;;;;;;13.43;2.38;;;8.60;99.90;;;;;;5045316;28;20040;-69
2023/05/02 03:09:43;;;;;;;12.90;2.28;;;8.60;99.90;;;;;;5039424;28;20344;-68
2023/05/02 03:12:09;;;;;;;10.73;2.13;;;8.60;99.90;;;;;;5038137;28;20051;-71
2023/05/02 03:14:36;;;;;;;9.07;2.73;;;8.60;99.90;;;;;;5039829;28;20064;-69
2023/05/02 03:17:02;;;;;;;9.20;2.00;;;8.50;99.90;;;;;;5046996;28;20063;-69
2023/05/02 03:19:28;;;;;;;6.93;1.73;;;8.50;99.90;;;;;;5046261;28;20048;-69
2023/05/02 03:21:56;;;;;;;13.73;2.60;;;8.50;99.90;;;;;;5035671;28;20243;-70
2023/05/02 03:24:22;;;;;;;12.63;2.10;;;8.50;99.90;;;;;;5044741;28;20110;-68
2023/05/02 03:26:48;;;;;;;11.00;1.80;;;8.60;99.90;;;;;;5046078;28;20466;-69
2023/05/02 03:29:14;;;;;;;12.27;2.83;;;8.50;99.90;;;;;;5045489;28;20044;-69
2023/05/02 03:31:40;;;;;;;7.32;1.80;;;8.40;99.90;;;;;;5040904;28;20093;-69
2023/05/02 03:34:05;;;;;;;13.70;1.93;;;8.40;99.90;;;;;;5046842;28;20421;-69
2023/05/02 03:36:31;;;;;;;7.17;1.80;;;8.40;99.90;;;;;;5044419;28;20040;-70
2023/05/02 03:38:57;;;;;;;6.97;2.20;;;8.40;99.90;;;;;;5043580;28;20070;-69
2023/05/02 03:41:23;;;;;;;14.50;1.70;;;8.40;99.90;;;;;;5057283;28;20282;-69
2023/05/02 03:43:50;;;;;;;8.88;1.63;;;8.40;99.90;;;;;;5047104;28;20044;-69
2023/05/02 03:46:15;;;;;;;4.95;1.67;;;8.40;99.90;;;;;;5046259;28;20071;-69
2023/05/02 03:48:41;;;;;;;9.33;1.80;;;8.40;99.90;;;;;;5042610;28;20052;-69
2023/05/02 03:51:08;;;;;;;9.00;2.03;;;8.40;99.90;;;;;;5037633;28;20145;-69
2023/05/02 03:53:34;;;;;;;4.95;1.15;;;8.40;99.90;;;;;;5040189;28;20232;-69
2023/05/02 03:56:00;;;;;;;4.63;1.35;;;8.30;99.90;;;;;;5043975;28;20529;-70
2023/05/02 03:58:26;;;;;;;8.33;1.23;;;8.30;99.90;;;;;;5043593;28;20288;-69
2023/05/02 04:00:52;;;;;;;10.00;1.60;;;8.30;99.90;;;;;;5046177;28;20052;-70
2023/05/02 04:03:19;;;;;;;4.20;1.00;;;8.30;99.90;;;;;;5062890;28;20048;-69
2023/05/02 04:05:45;;;;;;;6.35;1.85;;;8.30;99.90;;;;;;5040842;28;20287;-70
2023/05/02 04:08:10;;;;;;;8.75;1.58;;;8.30;99.90;;;;;;5024723;28;20044;-69
2023/05/02 04:10:36;;;;;;;7.47;2.10;;;8.30;99.90;;;;;;5045140;28;20037;-69
2023/05/02 04:13:02;;;;;;;9.40;1.33;;;8.30;99.90;;;;;;5058991;28;20124;-69
2023/05/02 04:15:29;;;;;;;8.15;1.40;;;8.30;99.90;;;;;;5024402;28;20040;-69
2023/05/02 04:17:57;;;;;;;3.75;0.95;;;8.30;99.90;;;;;;5055799;28;20157;-70
2023/05/02 04:20:22;;;;;;;4.43;1.38;;;8.30;99.90;;;;;;5047043;28;20037;-69
2023/05/02 04:22:49;;;;;;;4.27;0.80;;;8.20;99.90;;;;;;5041591;28;20064;-69
2023/05/02 04:25:15;;;;;;;;;;;8.20;99.90;;;;;;5038064;28;20131;-69
2023/05/02 04:27:40;;;;;;;6.47;1.40;;;8.10;99.90;;;;;;5044283;28;20050;-77
2023/05/02 04:30:07;;;;;;;5.93;2.13;;;8.10;99.90;;;;;;5043681;28;20040;-76
2023/05/02 04:32:32;;;;;;;7.28;0.93;;;8.10;99.90;;;;;;5045954;28;20065;-68
2023/05/02 04:34:58;;;;;;;4.28;0.93;;;8.10;99.90;;;;;;5047683;28;20469;-69
2023/05/02 04:37:24;;;;;;;3.20;1.48;;;8.10;99.90;;;;;;5048764;28;20185;-68
2023/05/02 04:39:50;;;;;;;7.35;1.48;;;8.00;99.90;;;;;;5040891;28;20049;-70
2023/05/02 04:42:16;;;;;;;3.50;0.87;;;8.00;99.90;;;;;;5043004;28;20044;-70
2023/05/02 04:44:42;;;;;;;5.45;0.90;;;8.00;99.90;;;;;;5044243;28;20040;-69
2023/05/02 04:47:08;;;;;;;3.67;1.40;;;8.10;99.90;;;;;;5041122;28;20102;-73
2023/05/02 04:49:34;;;;;;;4.97;1.97;;;8.00;99.90;;;;;;5038556;28;20586;-68
2023/05/02 04:51:59;;;;;;;8.90;1.30;;;8.00;99.90;;;;;;5045819;28;20399;-70
2023/05/02 04:54:25;;;;;;;2.87;1.17;;;8.10;99.90;;;;;;5041827;28;20130;-71
2023/05/02 04:56:51;;;;;;;7.65;1.48;;;8.10;99.90;;;;;;5023533;28;20055;-70
2023/05/02 04:59:19;;;;;;;5.80;1.07;;;8.10;99.90;;;;;;5056923;28;20040;-72
2023/05/02 05:01:44;;;;;;;5.50;1.05;;;8.10;99.90;;;;;;5056145;28;20057;-70
2023/05/02 05:04:10;;;;;;;8.10;1.37;;;8.10;99.90;;;;;;5041058;28;20043;-70
2023/05/02 05:06:36;;;;;;;5.53;2.03;;;8.10;99.90;;;;;;5063921;28;20147;-71
2023/05/02 05:09:02;;;;;;;7.28;1.58;;;8.10;99.90;;;;;;5041002;28;20293;-73
2023/05/02 05:11:28;;;;;;;6.22;1.75;;;8.10;99.90;;;;;;5030386;28;20102;-78
2023/05/02 05:13:53;;;;;;;5.93;1.20;;;8.00;99.90;;;;;;5046002;28;20040;-74
2023/05/02 05:16:19;;;;;;;5.80;1.50;;;8.10;99.90;;;;;;5040916;28;20044;-71
2023/05/02 05:18:48;;;;;;;5.50;1.53;;;8.00;99.90;;;;;;5029465;28;20044;-79
2023/05/02 05:21:13;;;;;;;15.80;1.70;;;8.00;99.90;;;;;;5034074;28;20440;-71
2023/05/02 05:23:44;;;;;;;4.50;1.60;;;8.10;99.90;;;;;;5048365;28;20101;-72
2023/05/02 05:26:15;;;;;;;8.23;1.60;;;8.10;99.90;;;;;;5064715;28;20119;-78
2023/05/02 05:28:41;;;;;;;3.85;1.20;;;8.10;99.90;;;;;;5044664;28;20093;-76
2023/05/02 05:31:07;;;;;;;8.02;1.88;;;8.10;99.90;;;;;;5041484;28;20078;-70
2023/05/02 05:33:34;;;;;;;;;;;8.10;99.90;;;;;;5041035;28;20515;-69
2023/05/02 05:36:06;;;;;;;8.57;1.30;;;8.10;99.90;;;;;;5055928;28;19956;-69
2023/05/02 05:38:33;;;;;;;5.63;1.27;;;8.10;99.90;;;;;;5045263;28;20118;-69
2023/05/02 05:40:58;;;;;;;6.93;1.40;;;8.10;99.90;;;;;;5037321;28;20044;-70
2023/05/02 05:43:25;;;;;;;6.03;1.03;;;8.10;99.90;;;;;;5043910;28;20044;-70
2023/05/02 05:45:54;;;;;;;9.45;1.48;;;8.10;99.90;;;;;;5043381;28;20414;-70
2023/05/02 05:48:23;;;;;;;3.15;1.33;;;8.10;99.90;;;;;;5037799;28;20048;-70
2023/05/02 05:50:49;;;;;;;7.10;1.40;;;8.10;99.90;;;;;;5063890;28;20063;-70
2023/05/02 05:53:14;;;;;;;15.63;1.77;;;8.10;99.90;;;;;;5040310;28;20045;-70
2023/05/02 05:55:43;;;;;;;4.35;1.33;;;8.10;99.90;;;;;;5037310;28;20044;-70
2023/05/02 05:58:12;;;;;;;6.93;1.75;;;8.20;99.90;;;;;;5038364;28;20040;-68
2023/05/02 06:00:41;;;;;;;8.27;1.52;;;8.20;99.90;;;;;;5053503;28;20347;-71
2023/05/02 06:03:07;;;;;;;6.27;1.23;;;8.20;99.90;;;;;;5059325;28;20045;-70
2023/05/02 06:05:33;;;;;;;14.20;1.80;;;8.20;99.90;;;;;;5031596;28;20411;-70
2023/05/02 06:07:59;;;;;;;5.15;1.63;;;8.30;99.90;;;;;;5060105;28;20102;-69
2023/05/02 06:10:27;;;;;;;10.68;1.50;;;8.30;99.90;;;;;;5052891;28;20040;-70
2023/05/02 06:12:53;;;;;;;5.40;1.70;;;8.30;99.90;;;;;;5028810;28;20040;-70
2023/05/02 06:15:19;;;;;;;4.90;1.37;;;8.30;99.90;;;;;;5082596;22;20037;-70
2023/05/02 06:17:44;;;;;;;7.13;1.77;;;8.30;99.90;;;;;;5024427;28;20149;-70
2023/05/02 06:20:10;;;;;;;7.70;1.20;;;8.30;99.90;;;;;;5024254;28;20065;-70
2023/05/02 06:22:39;;;;;;;7.20;1.80;;;8.30;99.90;;;;;;5038094;28;20510;-69
2023/05/02 06:25:06;;;;;;;6.57;1.83;;;8.40;99.90;;;;;;5013110;28;20120;-69
2023/05/02 06:27:34;;;;;;;6.63;1.48;;;8.40;99.90;;;;;;5037245;28;20477;-69
2023/05/02 06:30:03;;;;;;;5.57;1.52;;;8.50;99.90;;;;;;5023024;28;20041;-68
2023/05/02 06:32:32;;;;;;;8.82;1.60;;;8.50;99.90;;;;;;5023941;28;20118;-68
2023/05/02 06:34:58;;;;;;;5.15;1.58;;;8.50;99.90;;;;;;5024821;28;20422;-69
2023/05/02 06:37:24;;;;;;;4.90;1.58;;;8.50;99.90;;;;;;5038133;28;20210;-72
2023/05/02 06:39:50;;;;;;;4.50;1.38;;;8.50;99.90;;;;;;5036705;28;20045;-70
2023/05/02 06:42:16;;;;;;;5.27;1.30;;;8.50;99.90;;;;;;5019950;28;20067;-69
2023/05/02 06:44:41;;;;;;;6.27;1.53;;;8.50;99.90;;;;;;5023093;28;20045;-69
2023/05/02 06:47:07;;;;;;;9.13;1.70;;;8.50;99.90;;;;;;5025049;28;20110;-68
2023/05/02 06:49:33;;;;;;;5.97;1.80;;;8.50;99.90;;;;;;5008966;28;20442;-69
2023/05/02 06:51:58;;;;;;;5.90;1.50;;;8.50;99.90;;;;;;5044305;28;20649;-69
2023/05/02 06:54:25;;;;;;;6.20;2.30;;;8.60;99.90;;;;;;5044540;28;20490;-69
2023/05/02 06:56:50;;;;;;;3.88;1.27;;;8.50;99.90;;;;;;5030053;28;20304;-69
2023/05/02 06:59:16;;;;;;;10.67;1.83;;;8.50;99.90;;;;;;5026798;28;20049;-68
2023/05/02 07:01:45;;;;;;;4.47;1.57;;;8.50;99.90;;;;;;5027392;28;20473;-68
2023/05/02 07:04:11;;;;;;;7.72;1.77;;;8.60;99.90;;;;;;5012671;28;20053;-69
2023/05/02 07:06:36;;;;;;;21.13;2.13;;;8.60;99.90;;;;;;5029265;28;20124;-68
2023/05/02 07:09:02;;;;;;;8.77;1.97;;;8.50;99.90;;;;;;5044317;28;20049;-69
2023/05/02 07:11:28;;;;;;;5.93;1.93;;;8.50;99.90;;;;;;5024624;28;20470;-72
2023/05/02 07:13:54;;;;;;;5.40;1.80;;;8.50;99.90;;;;;;5025014;28;20068;-71
2023/05/02 07:16:19;;;;;;;7.40;1.50;;;8.40;99.90;;;;;;5029934;28;20048;-74
2023/05/02 07:18:45;;;;;;;5.27;1.83;;;8.40;99.90;;;;;;5032900;28;20037;-69
2023/05/02 07:21:11;;;;;;;7.70;1.77;;;8.50;99.90;;;;;;5014896;28;20033;-69
2023/05/02 07:23:37;;;;;;;7.25;1.92;;;8.50;99.90;;;;;;5045526;28;20033;-68
2023/05/02 07:26:04;;;;;;;8.33;1.67;;;8.50;99.90;;;;;;5042538;28;20068;-68
2023/05/02 07:28:30;;;;;;;5.07;1.75;;;8.50;99.90;;;;;;5011606;28;20184;-69
2023/05/02 07:30:56;;;;;;;3.53;1.40;;;8.50;99.90;;;;;;5027662;28;20100;-68
2023/05/02 07:33:22;;;;;;;5.35;1.75;;;8.60;99.90;;;;;;5039104;28;20361;-68
2023/05/02 07:35:48;;;;;;;3.65;1.50;;;8.60;99.90;;;;;;5046585;28;20422;-68
2023/05/02 07:38:14;;;;;;;2.17;1.17;;;8.70;99.90;;;;;;5030911;28;20469;-69
2023/05/02 07:40:40;;;;;;;4.87;1.30;;;8.70;99.90;;;;;;5024343;28;20124;-68
2023/05/02 07:43:05;;;;;;;4.85;1.17;;;8.70;99.90;;;;;;5012816;28;20076;-69
2023/05/02 07:45:31;;;;;;;5.13;1.57;;;8.80;99.90;;;;;;5013718;28;21841;-69
2023/05/02 07:47:57;;;;;;;9.73;1.77;;;8.80;99.90;;;;;;5017018;28;20417;-69
2023/05/02 07:50:23;;;;;;;7.77;1.47;;;8.80;99.90;;;;;;5034162;28;20544;-68
2023/05/02 07:52:48;;;;;;;5.88;1.73;;;8.90;99.90;;;;;;5027523;28;20076;-69
2023/05/02 07:55:14;;;;;;;5.10;1.43;;;9.00;99.90;;;;;;5023996;28;20048;-69
2023/05/02 07:57:40;;;;;;;7.90;1.60;;;9.00;99.90;;;;;;5044664;28;20427;-69
2023/05/02 08:00:08;;;;;;;5.17;1.20;;;9.00;99.90;;;;;;5008042;28;20051;-68
2023/05/02 08:02:35;;;;;;;4.57;1.70;;;9.10;99.90;;;;;;5022436;28;20123;-69
2023/05/02 08:05:02;;;;;;;3.95;1.50;;;9.10;99.90;;;;;;5026705;28;20041;-68
2023/05/02 08:07:27;;;;;;;3.47;1.33;;;9.20;99.90;;;;;;5029573;28;20041;-68
2023/05/02 08:09:53;;;;;;;7.83;1.90;;;9.30;99.90;;;;;;5012624;28;20409;-69
2023/05/02 08:12:19;;;;;;;6.43;1.83;;;9.30;99.90;;;;;;5046454;28;20437;-69
2023/05/02 08:14:44;;;;;;;3.57;0.97;;;9.30;99.90;;;;;;5024487;28;20048;-69
2023/05/02 08:17:11;;;;;;;3.90;1.00;;;9.30;99.90;;;;;;5046851;28;20335;-69
2023/05/02 08:19:36;;;;;;;;;;;9.20;99.90;;;;;;5028506;28;20135;-69
2023/05/02 08:22:02;;;;;;;5.32;1.13;;;9.20;99.90;;;;;;5043238;28;20007;-69
2023/05/02 08:24:29;;;;;;;3.20;1.20;;;9.30;99.90;;;;;;5024939;28;20060;-68
2023/05/02 08:26:55;;;;;;;5.18;1.00;;;9.30;99.90;;;;;;5017659;28;20098;-68
2023/05/02 08:29:21;;;;;;;3.07;1.10;;;9.30;99.90;;;;;;5022249;28;20486;-68
2023/05/02 08:31:47;;;;;;;3.85;1.30;;;9.30;99.90;;;;;;5046501;28;20044;-69
2023/05/02 08:34:13;;;;;;;4.90;0.87;;;9.40;99.90;;;;;;5025953;28;20053;-69
2023/05/02 08:36:38;;;;;;;3.90;1.00;;;9.40;99.90;;;;;;5028123;28;20041;-69
2023/05/02 08:39:06;;;;;;;5.43;1.50;;;9.40;99.90;;;;;;5025333;28;20437;-69
2023/05/02 08:41:32;;;;;;;3.10;1.25;;;9.50;99.90;;;;;;5010204;28;20045;-69
2023/05/02 08:43:58;;;;;;;3.33;0.83;;;9.60;99.90;;;;;;5026388;28;20055;-69
2023/05/02 08:46:25;;;;;;;1.98;0.90;;;9.70;99.90;;;;;;5024970;28;20053;-69
2023/05/02 08:48:52;;;;;;;8.93;1.10;;;9.70;99.90;;;;;;5033919;28;20615;-69
2023/05/02 08:51:18;;;;;;;7.53;1.33;;;9.70;99.90;;;;;;5044286;28;20044;-68
2023/05/02 08:53:44;;;;;;;3.28;0.63;;;9.70;99.90;;;;;;5026365;28;20639;-69
2023/05/02 08:56:11;;;;;;;5.22;1.02;;;9.70;99.90;;;;;;5028360;28;20053;-68
2023/05/02 08:58:39;;;;;;;5.60;2.00;;;9.70;99.90;;;;;;5011135;28;20083;-68
2023/05/02 09:01:15;;;;;;;3.33;1.45;;;9.80;99.90;;;;;;5025275;28;20517;-68
2023/05/02 09:03:43;;;;;;;2.58;1.00;;;9.80;99.90;;;;;;5018684;28;20127;-68
2023/05/02 09:06:15;;;;;;;4.70;1.38;;;9.90;99.90;;;;;;5028942;28;20413;-70
2023/05/02 09:08:42;;;;;;;3.78;0.90;;;9.80;99.90;;;;;;5024416;28;20056;-68
2023/05/02 09:11:09;;;;;;;7.68;1.55;;;9.80;99.90;;;;;;5010261;28;20080;-68
2023/05/02 09:13:40;;;;;;;6.28;1.20;;;9.80;99.90;;;;;;5029224;28;20045;-72
2023/05/02 09:16:21;;;;;;;7.72;1.02;;;9.90;99.90;;;;;;5012373;28;20055;-69
2023/05/02 09:19:00;;;;;;;2.88;0.90;;;10.00;99.90;;;;;;5044966;28;20064;-69
2023/05/02 09:21:36;;;;;;;4.07;0.93;;;10.10;99.90;;;;;;5020437;28;20494;-68
2023/05/02 09:24:13;;;;;;;4.53;0.60;;;10.20;99.90;;;;;;5024520;28;20036;-69
2023/05/02 09:26:39;;;;;;;1.58;0.80;;;10.20;99.90;;;;;;5009397;28;20045;-69
2023/05/02 09:29:05;;;;;;;1.77;0.68;;;10.20;99.90;;;;;;5019770;28;20083;-69
2023/05/02 09:31:35;;;;;;;4.07;0.82;;;10.20;99.90;;;;;;5032025;28;20439;-69
2023/05/02 09:34:09;;;;;;;2.97;0.77;;;10.20;99.90;;;;;;5025064;28;20106;-70
2023/05/02 09:36:42;;;;;;;4.32;0.68;;;10.30;99.90;;;;;;5027588;28;20067;-70
2023/05/02 09:39:22;;;;;;;6.15;1.52;;;10.40;99.90;;;;;;5041719;28;20136;-70
2023/05/02 09:41:48;;;;;;;2.50;0.60;;;10.40;99.90;;;;;;5043346;28;20036;-69
2023/05/02 09:44:23;;;;;;;1.95;0.70;;;10.50;99.90;;;;;;5022335;28;20060;-70
2023/05/02 09:46:51;;;;;;;2.10;1.15;;;10.70;99.90;;;;;;5025821;28;20064;-70
2023/05/02 09:49:19;;;;;;;2.35;0.80;;;10.80;99.90;;;;;;5028405;28;20099;-70
2023/05/02 09:51:46;;;;;;;1.90;0.57;;;10.90;99.90;;;;;;5045368;28;20124;-70
2023/05/02 09:54:32;;;;;;;2.17;0.88;;;11.00;99.90;;;;;;5025955;28;20491;-70
2023/05/02 09:56:58;;;;;;;2.83;0.60;;;11.00;99.90;;;;;;5021380;28;20052;-70
2023/05/02 09:59:24;;;;;;;1.95;0.57;;;10.90;99.80;;;;;;5023050;28;20448;-71
2023/05/02 10:01:58;;;;;;;2.63;0.60;;;10.90;99.30;;;;;;5023665;28;20048;-70
2023/05/02 10:04:25;;;;;;;4.53;1.15;;;10.90;99.50;;;;;;5023890;28;20059;-71
2023/05/02 10:06:51;;;;;;;;;;;10.90;99.80;;;;;;5023744;28;20133;-71
2023/05/02 10:09:20;;;;;;;6.70;0.80;;;10.70;99.80;;;;;;5038841;28;19925;-71
2023/05/02 10:11:46;;;;;;;2.90;1.20;;;10.70;99.90;;;;;;5009113;28;20045;-71
2023/05/02 10:14:14;;;;;;;8.38;0.98;;;10.70;99.90;;;;;;5029192;28;20059;-70
2023/05/02 10:17:00;;;;;;;2.95;0.90;;;10.70;99.90;;;;;;5023012;28;20236;-71
2023/05/02 10:19:40;;;;;;;3.92;0.80;;;11.00;99.90;;;;;;5037115;28;20497;-71
2023/05/02 10:22:07;;;;;;;3.00;0.65;;;11.20;99.90;;;;;;5015105;28;20524;-71
2023/05/02 10:24:33;;;;;;;2.08;0.52;;;11.40;99.90;;;;;;5044148;28;20128;-71
2023/05/02 10:27:01;;;;;;;3.10;0.70;;;11.50;99.90;;;;;;5025780;28;20530;-71
2023/05/02 10:29:30;;;;;;;3.58;0.82;;;11.40;99.30;;;;;;5031100;28;20041;-71
2023/05/02 10:31:59;;;;;;;1.52;0.65;;;11.20;98.50;;;;;;5045709;28;20096;-71
2023/05/02 10:34:26;;;;;;;2.92;0.80;;;11.20;99.30;;;;;;5048678;28;20056;-71
2023/05/02 10:36:54;;;;;;;2.55;1.08;;;11.40;99.70;;;;;;5032016;28;20041;-71
2023/05/02 10:39:23;;;;;;;2.35;0.60;;;11.60;99.70;;;;;;5022908;28;20076;-71
2023/05/02 10:41:51;;;;;;;4.45;0.90;;;11.90;99.20;;;;;;5028833;28;20313;-71
2023/05/02 10:44:18;;;;;;;1.95;0.70;;;12.10;98.80;;;;;;5023979;28;20041;-70
2023/05/02 10:46:44;;;;;;;3.20;0.65;;;12.00;98.20;;;;;;5029772;28;20049;-70
2023/05/02 10:49:11;;;;;;;6.10;1.27;;;11.80;97.80;;;;;;5031414;28;20032;-70
2023/05/02 10:51:41;;;;;;;3.53;0.90;;;11.70;98.50;;;;;;5028242;28;20049;-70
2023/05/02 10:54:19;;;;;;;4.78;1.08;;;11.50;99.10;;;;;;5046817;28;20044;-70
2023/05/02 10:57:03;;;;;;;5.63;1.13;;;11.40;99.90;;;;;;5028808;28;20095;-70
2023/05/02 10:59:41;;;;;;;4.28;0.95;;;11.30;99.90;;;;;;5044502;28;20465;-70
2023/05/02 11:02:22;;;;;;;4.72;1.33;;;11.30;99.90;;;;;;5047269;28;20044;-70
2023/05/02 11:05:05;;;;;;;4.38;0.95;;;11.20;99.90;;;;;;5043302;28;20062;-70
2023/05/02 11:07:33;;;;;;;3.00;1.00;;;11.20;99.90;;;;;;5050124;28;20041;-70
2023/05/02 11:10:17;;;;;;;2.65;0.85;;;11.10;99.90;;;;;;5030029;28;20036;-70
2023/05/02 11:12:46;;;;;;;3.25;0.93;;;11.20;99.90;;;;;;5028000;28;20029;-70
2023/05/02 11:15:12;;;;;;;3.35;1.00;;;11.20;99.90;;;;;;5010781;28;20379;-70
2023/05/02 11:17:57;;;;;;;3.22;1.10;;;11.20;99.90;;;;;;5011442;28;20048;-70
2023/05/02 11:20:23;;;;;;;2.53;1.17;;;11.20;99.90;;;;;;5027368;28;20098;-70
2023/05/02 11:22:49;;;;;;;1.98;0.85;;;11.10;99.90;;;;;;5042777;28;20425;-70
2023/05/02 11:25:32;;;;;;;2.40;0.90;;;11.00;99.90;;;;;;5030864;28;20055;-70
2023/05/02 11:27:58;;;;;;;4.78;1.33;;;11.00;99.90;;;;;;5011622;28;20096;-70
2023/05/02 11:30:43;;;;;;;3.47;0.80;;;11.10;99.90;;;;;;5024484;28;20101;-70
2023/05/02 11:33:10;;;;;;;3.47;1.58;;;11.10;99.90;;;;;;5030127;28;20044;-69
2023/05/02 11:35:40;;;;;;;3.00;0.52;;;11.20;99.90;;;;;;5014977;28;20397;-69
2023/05/02 11:38:12;;;;;;;2.47;0.70;;;11.20;99.90;;;;;;5016614;28;20123;-69
2023/05/02 11:40:37;;;;;;;2.47;0.77;;;11.30;99.90;;;;;;5026818;28;20046;-69
2023/05/02 11:43:14;;;;;;;3.60;0.90;;;11.30;99.90;;;;;;5025201;28;20037;-68
2023/05/02 11:45:43;;;;;;;6.57;0.98;;;11.50;99.90;;;;;;5026711;28;20124;-69
2023/05/02 11:48:11;;;;;;;2.92;0.88;;;11.50;99.80;;;;;;5026939;28;20056;-69
2023/05/02 11:50:48;;;;;;;1.70;0.60;;;11.50;99.60;;;;;;5025580;28;20045;-68
2023/05/02 11:53:16;;;;;;;3.30;0.90;;;11.40;99.80;;;;;;5029847;28;20065;-69
2023/05/02 11:55:46;;;;;;;2.75;0.70;;;11.30;99.90;;;;;;5030344;28;20056;-68
2023/05/02 11:58:17;;;;;;;2.58;1.60;;;11.30;99.90;;;;;;5023309;28;20037;-68
2023/05/02 12:00:47;;;;;;;4.00;1.25;;;11.20;99.90;;;;;;5030816;28;20123;-68
2023/05/02 12:03:39;;;;;;;2.33;0.55;;;11.20;99.90;;;;;;5029657;28;20351;-68
2023/05/02 12:06:13;;;;;;;2.63;0.60;;;11.20;99.90;;;;;;5027898;28;20049;-68
2023/05/02 12:08:41;;;;;;;2.95;0.73;;;11.20;99.90;;;;;;5035539;28;20399;-68
2023/05/02 12:11:07;;;;;;;2.15;0.65;;;11.20;99.90;;;;;;5043036;28;20041;-68
2023/05/02 12:13:33;;;;;;;6.43;1.08;;;11.20;99.90;;;;;;5028525;28;20449;-68
2023/05/02 12:15:59;;;;;;;4.57;0.90;;;11.10;99.90;;;;;;5039862;22;20102;-71
2023/05/02 12:18:26;;;;;;;4.28;1.00;;;11.10;99.90;;;;;;5006677;28;20041;-71
2023/05/02 12:20:53;;;;;;;2.53;0.60;;;11.20;99.90;;;;;;5014746;28;20068;-71
2023/05/02 12:23:21;;;;;;;4.85;1.02;;;11.10;99.90;;;;;;5051059;28;20037;-72
2023/05/02 12:25:48;;;;;;;1.02;0.65;;;11.10;99.90;;;;;;5034520;28;20288;-72
2023/05/02 12:28:16;;;;;;;1.45;0.40;;;11.10;99.90;;;;;;5030670;28;20461;-72
2023/05/02 12:30:41;;;;;;;3.30;0.85;;;11.10;99.90;;;;;;5020014;28;20044;-73
2023/05/02 12:33:08;;;;;;;4.27;0.77;;;11.10;99.90;;;;;;5006037;28;20087;-73
2023/05/02 12:35:34;;;;;;;2.08;0.60;;;11.10;99.90;;;;;;5028906;28;20297;-72
2023/05/02 12:38:17;;;;;;;8.43;1.20;;;11.10;99.90;;;;;;5047325;28;20501;-72
2023/05/02 12:40:48;;;;;;;4.88;0.70;;;11.10;99.90;;;;;;5024140;28;20499;-72
2023/05/02 12:43:15;;;;;;;1.52;0.70;;;11.10;99.90;;;;;;5029256;28;20059;-72
2023/05/02 12:45:40;;;;;;;3.17;0.63;;;11.10;99.90;;;;;;5026681;28;20506;-73
2023/05/02 12:48:23;;;;;;;1.67;0.73;;;11.00;99.90;;;;;;5030659;28;20033;-72
2023/05/02 12:50:50;;;;;;;1.80;0.50;;;11.10;99.90;;;;;;5024214;28;20342;-72
2023/05/02 12:53:16;;;;;;;;;;;11.10;99.90;;;;;;5040928;28;20251;-74
2023/05/02 12:55:41;;;;;;;4.55;0.60;;;11.00;99.90;;;;;;5032412;28;20022;-72
2023/05/02 12:58:15;;;;;;;1.38;0.40;;;11.00;99.90;;;;;;5027698;28;20043;-72
2023/05/02 13:00:41;;;;;;;2.67;0.70;;;11.00;99.90;;;;;;5029668;28;20052;-72
2023/05/02 13:03:09;;;;;;;5.90;1.88;;;11.00;99.90;;;;;;5018184;28;20494;-72